Madeline — WDF2406 — position and weather

sailwx.info

Track history (hours):
 
Tides and Currents Weather Stations Pressure Air Temp Water Temp Dewpoint Dewpoint Depression Visibility Wind Speed Wind Dir Waves Ship Positions

Madeline

Owner: Enterprise Marine Services, LLC, San Antonio, TX. More information available from US FCC via Universal Licensing System and Coast Guard Vessel Documentation Center.

Last reported at 2017-Mar-23 12:12 UTC. Time now 2017-Mar-26 19:06 UTC.
Position N 32°37' W 091°09'.

; draft 3 m.

Type: Ship (hazmat cat B). MMSI: 367350460.

Date/timePositionNaut miles runAvg speedWind from/ knotsBaromVisibWave heightAir tempDewpointWater temp
2017-Mar-23 12:12N 32°37' W 091°09'3 4.8
2017-Mar-23 11:33N 32°35' W 091°07'5 4.5
2017-Mar-23 10:33N 32°30' W 091°07'5 4.9
2017-Mar-23 09:33N 32°26' W 091°03'4 4.1
2017-Mar-23 08:33N 32°23' W 090°60'3 3.0
2017-Mar-23 07:33N 32°21' W 090°58'4 3.5
2017-Mar-23 06:33N 32°19' W 090°55'5 5.4
2017-Mar-23 05:33N 32°15' W 090°59'5 5.2
2017-Mar-23 04:33N 32°09' W 091°00'4 3.8
2017-Mar-23 03:21N 32°08' W 091°05'3 4.1
2017-Mar-23 02:33N 32°05' W 091°04'  
2017-Mar-17 06:21N 29°34' W 090°29'5 5.7
2017-Mar-17 05:33N 29°34' W 090°34'4 4.4
2017-Mar-17 04:33N 29°35' W 090°39'4 3.7
2017-Mar-17 03:33N 29°36' W 090°43'3 2.7
2017-Mar-17 02:33N 29°34' W 090°43'0 0.0
2017-Mar-17 01:33N 29°34' W 090°43'0 0.0
2017-Mar-17 00:33N 29°34' W 090°43'0 0.1
2017-Mar-16 23:33N 29°34' W 090°43'0 0.1
2017-Mar-16 22:33N 29°34' W 090°43'0 0.0
2017-Mar-16 21:33N 29°34' W 090°43'0 0.0
2017-Mar-16 20:33N 29°34' W 090°43'0 0.0
2017-Mar-16 19:33N 29°34' W 090°43'0 0.0
2017-Mar-16 18:33N 29°34' W 090°43'0 0.0
2017-Mar-16 17:33N 29°34' W 090°43'1 1.2
2017-Mar-16 16:33N 29°35' W 090°43'0 0.0
2017-Mar-16 15:33N 29°35' W 090°43'0 0.0
2017-Mar-16 14:33N 29°35' W 090°43'1 1.2
2017-Mar-16 13:33N 29°34' W 090°43'0 0.0
2017-Mar-16 12:33N 29°34' W 090°43'0 0.2
2017-Mar-16 11:33N 29°34' W 090°43'0 0.0
2017-Mar-16 10:33N 29°34' W 090°43'0 0.0
2017-Mar-16 09:33N 29°34' W 090°43'0 0.0
2017-Mar-16 08:33N 29°34' W 090°43'0 0.0
2017-Mar-16 07:33N 29°34' W 090°43'0 0.0
2017-Mar-16 06:33N 29°34' W 090°43'0 0.0
2017-Mar-16 05:33N 29°34' W 090°43'0 0.0
2017-Mar-16 04:33N 29°34' W 090°43'0 0.0
2017-Mar-16 03:33N 29°34' W 090°43'0 0.0
2017-Mar-16 02:33N 29°34' W 090°43'0 0.0
2017-Mar-16 01:33N 29°34' W 090°43'0 0.0
2017-Mar-16 00:33N 29°34' W 090°43'0 0.1
2017-Mar-15 23:33N 29°34' W 090°43'0 0.0
2017-Mar-15 22:33N 29°34' W 090°43'0 0.0
2017-Mar-15 21:33N 29°34' W 090°43'0 0.0
2017-Mar-15 20:33N 29°34' W 090°43'0 0.1
2017-Mar-15 19:33N 29°34' W 090°43'0 0.0
2017-Mar-15 18:33N 29°34' W 090°43'0 0.0
2017-Mar-15 17:33N 29°34' W 090°43'0 0.0
2017-Mar-15 16:33N 29°34' W 090°43'0 0.0
2017-Mar-15 15:33N 29°34' W 090°43'0 0.0
2017-Mar-15 14:33N 29°34' W 090°43'0 0.0
2017-Mar-15 13:33N 29°34' W 090°43'0 0.0
2017-Mar-15 12:33N 29°34' W 090°43'0 0.0
2017-Mar-15 11:33N 29°34' W 090°43'0 0.0
2017-Mar-15 10:33N 29°34' W 090°43'0 0.0
2017-Mar-15 09:33N 29°34' W 090°43'0 0.0
2017-Mar-15 08:33N 29°34' W 090°43'0 0.0
2017-Mar-15 07:33N 29°34' W 090°43'0 0.0
2017-Mar-15 06:33N 29°34' W 090°43'0 0.0
2017-Mar-15 05:33N 29°34' W 090°43'0 0.0
2017-Mar-15 04:33N 29°34' W 090°43'0 0.0
2017-Mar-15 03:33N 29°34' W 090°43'0 0.0
2017-Mar-15 02:33N 29°34' W 090°43'0 0.0
2017-Mar-15 01:33N 29°34' W 090°43'0 0.0
2017-Mar-15 00:33N 29°34' W 090°43'0 0.0
2017-Mar-14 23:33N 29°34' W 090°43'0 0.0
2017-Mar-14 22:33N 29°34' W 090°43'0 0.0
2017-Mar-14 21:33N 29°34' W 090°43'0 0.0
2017-Mar-14 20:33N 29°34' W 090°43'0 0.0
2017-Mar-14 19:33N 29°34' W 090°43'0 0.0
2017-Mar-14 18:33N 29°34' W 090°43'0 0.0
2017-Mar-14 17:33N 29°34' W 090°43'0 0.0
2017-Mar-14 16:33N 29°34' W 090°43'0 0.0
2017-Mar-14 15:33N 29°34' W 090°43'0 0.0
2017-Mar-14 14:33N 29°34' W 090°43'0 0.0
2017-Mar-14 13:33N 29°34' W 090°43'0 0.0
2017-Mar-14 12:33N 29°34' W 090°43'0 0.0
2017-Mar-14 11:33N 29°34' W 090°43'0 0.0
2017-Mar-14 10:33N 29°34' W 090°43'0 0.0
2017-Mar-14 09:33N 29°34' W 090°43'0 0.0
2017-Mar-14 08:33N 29°34' W 090°43'0 0.0
2017-Mar-14 07:33N 29°34' W 090°43'0 0.0
2017-Mar-14 06:33N 29°34' W 090°43'0 0.0
2017-Mar-14 05:33N 29°34' W 090°43'0 0.0
2017-Mar-14 04:33N 29°34' W 090°43'0 0.0
2017-Mar-14 03:33N 29°34' W 090°43'0 0.0
2017-Mar-14 02:33N 29°34' W 090°43'0 0.0
2017-Mar-14 01:33N 29°34' W 090°43'0 0.0
2017-Mar-14 00:33N 29°34' W 090°43'0 0.0
2017-Mar-13 23:33N 29°34' W 090°43'0 0.0
2017-Mar-13 22:33N 29°34' W 090°43'0 0.0
2017-Mar-13 21:33N 29°34' W 090°43'0 0.0
2017-Mar-13 20:33N 29°34' W 090°43'0 0.0
2017-Mar-13 19:33N 29°34' W 090°43'0 0.0
2017-Mar-13 18:33N 29°34' W 090°43'0 0.0
2017-Mar-13 17:33N 29°34' W 090°43'0 0.0
2017-Mar-13 16:33N 29°34' W 090°43'0 0.0
2017-Mar-13 15:33N 29°34' W 090°43'0 0.0
2017-Mar-13 14:33N 29°34' W 090°43'0 0.0
2017-Mar-13 13:33N 29°34' W 090°43'0 0.0
2017-Mar-13 12:33N 29°34' W 090°43'  
Track history (hours):
 
Tides and Currents Weather Stations Pressure Air Temp Water Temp Dewpoint Dewpoint Depression Visibility Wind Speed Wind Dir Waves Ship Positions

Madeline

Owner: Enterprise Marine Services, LLC, San Antonio, TX. More information available from US FCC via Universal Licensing System and Coast Guard Vessel Documentation Center.

Last reported at 2017-Mar-23 12:12 UTC. Time now 2017-Mar-26 19:06 UTC.
Position N 32°37' W 091°09'.

; draft 3 m.

Type: Ship (hazmat cat B). MMSI: 367350460.

Date/timePositionNaut miles runAvg speedWind from/ knotsBaromVisibWave heightAir tempDewpointWater temp
2017-Mar-23 12:12N 32°37' W 091°09'3 4.8
2017-Mar-23 11:33N 32°35' W 091°07'5 4.5
2017-Mar-23 10:33N 32°30' W 091°07'5 4.9
2017-Mar-23 09:33N 32°26' W 091°03'4 4.1
2017-Mar-23 08:33N 32°23' W 090°60'3 3.0
2017-Mar-23 07:33N 32°21' W 090°58'4 3.5
2017-Mar-23 06:33N 32°19' W 090°55'5 5.4
2017-Mar-23 05:33N 32°15' W 090°59'5 5.2
2017-Mar-23 04:33N 32°09' W 091°00'4 3.8
2017-Mar-23 03:21N 32°08' W 091°05'3 4.1
2017-Mar-23 02:33N 32°05' W 091°04'  
2017-Mar-17 06:21N 29°34' W 090°29'5 5.7
2017-Mar-17 05:33N 29°34' W 090°34'4 4.4
2017-Mar-17 04:33N 29°35' W 090°39'4 3.7
2017-Mar-17 03:33N 29°36' W 090°43'3 2.7
2017-Mar-17 02:33N 29°34' W 090°43'0 0.0
2017-Mar-17 01:33N 29°34' W 090°43'0 0.0
2017-Mar-17 00:33N 29°34' W 090°43'0 0.1
2017-Mar-16 23:33N 29°34' W 090°43'0 0.1
2017-Mar-16 22:33N 29°34' W 090°43'0 0.0
2017-Mar-16 21:33N 29°34' W 090°43'0 0.0
2017-Mar-16 20:33N 29°34' W 090°43'0 0.0
2017-Mar-16 19:33N 29°34' W 090°43'0 0.0
2017-Mar-16 18:33N 29°34' W 090°43'0 0.0
2017-Mar-16 17:33N 29°34' W 090°43'1 1.2
2017-Mar-16 16:33N 29°35' W 090°43'0 0.0
2017-Mar-16 15:33N 29°35' W 090°43'0 0.0
2017-Mar-16 14:33N 29°35' W 090°43'1 1.2
2017-Mar-16 13:33N 29°34' W 090°43'0 0.0
2017-Mar-16 12:33N 29°34' W 090°43'0 0.2
2017-Mar-16 11:33N 29°34' W 090°43'0 0.0
2017-Mar-16 10:33N 29°34' W 090°43'0 0.0
2017-Mar-16 09:33N 29°34' W 090°43'0 0.0
2017-Mar-16 08:33N 29°34' W 090°43'0 0.0
2017-Mar-16 07:33N 29°34' W 090°43'0 0.0
2017-Mar-16 06:33N 29°34' W 090°43'0 0.0
2017-Mar-16 05:33N 29°34' W 090°43'0 0.0
2017-Mar-16 04:33N 29°34' W 090°43'0 0.0
2017-Mar-16 03:33N 29°34' W 090°43'0 0.0
2017-Mar-16 02:33N 29°34' W 090°43'0 0.0
2017-Mar-16 01:33N 29°34' W 090°43'0 0.0
2017-Mar-16 00:33N 29°34' W 090°43'0 0.1
2017-Mar-15 23:33N 29°34' W 090°43'0 0.0
2017-Mar-15 22:33N 29°34' W 090°43'0 0.0
2017-Mar-15 21:33N 29°34' W 090°43'0 0.0
2017-Mar-15 20:33N 29°34' W 090°43'0 0.1
2017-Mar-15 19:33N 29°34' W 090°43'0 0.0
2017-Mar-15 18:33N 29°34' W 090°43'0 0.0
2017-Mar-15 17:33N 29°34' W 090°43'0 0.0
2017-Mar-15 16:33N 29°34' W 090°43'0 0.0
2017-Mar-15 15:33N 29°34' W 090°43'0 0.0
2017-Mar-15 14:33N 29°34' W 090°43'0 0.0
2017-Mar-15 13:33N 29°34' W 090°43'0 0.0
2017-Mar-15 12:33N 29°34' W 090°43'0 0.0
2017-Mar-15 11:33N 29°34' W 090°43'0 0.0
2017-Mar-15 10:33N 29°34' W 090°43'0 0.0
2017-Mar-15 09:33N 29°34' W 090°43'0 0.0
2017-Mar-15 08:33N 29°34' W 090°43'0 0.0
2017-Mar-15 07:33N 29°34' W 090°43'0 0.0
2017-Mar-15 06:33N 29°34' W 090°43'0 0.0
2017-Mar-15 05:33N 29°34' W 090°43'0 0.0
2017-Mar-15 04:33N 29°34' W 090°43'0 0.0
2017-Mar-15 03:33N 29°34' W 090°43'0 0.0
2017-Mar-15 02:33N 29°34' W 090°43'0 0.0
2017-Mar-15 01:33N 29°34' W 090°43'0 0.0
2017-Mar-15 00:33N 29°34' W 090°43'0 0.0
2017-Mar-14 23:33N 29°34' W 090°43'0 0.0
2017-Mar-14 22:33N 29°34' W 090°43'0 0.0
2017-Mar-14 21:33N 29°34' W 090°43'0 0.0
2017-Mar-14 20:33N 29°34' W 090°43'0 0.0
2017-Mar-14 19:33N 29°34' W 090°43'0 0.0
2017-Mar-14 18:33N 29°34' W 090°43'0 0.0
2017-Mar-14 17:33N 29°34' W 090°43'0 0.0
2017-Mar-14 16:33N 29°34' W 090°43'0 0.0
2017-Mar-14 15:33N 29°34' W 090°43'0 0.0
2017-Mar-14 14:33N 29°34' W 090°43'0 0.0
2017-Mar-14 13:33N 29°34' W 090°43'0 0.0
2017-Mar-14 12:33N 29°34' W 090°43'0 0.0
2017-Mar-14 11:33N 29°34' W 090°43'0 0.0
2017-Mar-14 10:33N 29°34' W 090°43'0 0.0
2017-Mar-14 09:33N 29°34' W 090°43'0 0.0
2017-Mar-14 08:33N 29°34' W 090°43'0 0.0
2017-Mar-14 07:33N 29°34' W 090°43'0 0.0
2017-Mar-14 06:33N 29°34' W 090°43'0 0.0
2017-Mar-14 05:33N 29°34' W 090°43'0 0.0
2017-Mar-14 04:33N 29°34' W 090°43'0 0.0
2017-Mar-14 03:33N 29°34' W 090°43'0 0.0
2017-Mar-14 02:33N 29°34' W 090°43'0 0.0
2017-Mar-14 01:33N 29°34' W 090°43'0 0.0
2017-Mar-14 00:33N 29°34' W 090°43'0 0.0
2017-Mar-13 23:33N 29°34' W 090°43'0 0.0
2017-Mar-13 22:33N 29°34' W 090°43'0 0.0
2017-Mar-13 21:33N 29°34' W 090°43'0 0.0
2017-Mar-13 20:33N 29°34' W 090°43'0 0.0
2017-Mar-13 19:33N 29°34' W 090°43'0 0.0
2017-Mar-13 18:33N 29°34' W 090°43'0 0.0
2017-Mar-13 17:33N 29°34' W 090°43'0 0.0
2017-Mar-13 16:33N 29°34' W 090°43'0 0.0
2017-Mar-13 15:33N 29°34' W 090°43'0 0.0
2017-Mar-13 14:33N 29°34' W 090°43'0 0.0
2017-Mar-13 13:33N 29°34' W 090°43'0 0.0
2017-Mar-13 12:33N 29°34' W 090°43'  

Dump ship's entire track history